sensor_id;sensor_type;location;lat;lon;timestamp;temperature;humidity
17815;DHT22;9031;50.974;11.330;2023-04-24T00:00:14;10.90;99.90
17815;DHT22;9031;50.974;11.330;2023-04-24T00:02:40;10.90;99.90
17815;DHT22;9031;50.974;11.330;2023-04-24T00:05:07;10.80;99.90
17815;DHT22;9031;50.974;11.330;2023-04-24T00:07:33;10.80;99.90
17815;DHT22;9031;50.974;11.330;2023-04-24T00:09:59;10.80;99.90
17815;DHT22;9031;50.974;11.330;2023-04-24T00:12:25;10.80;99.90
17815;DHT22;9031;50.974;11.330;2023-04-24T00:14:50;10.80;99.90
17815;DHT22;9031;50.974;11.330;2023-04-24T00:17:16;10.90;99.90
17815;DHT22;9031;50.974;11.330;2023-04-24T00:19:45;10.90;99.90
17815;DHT22;9031;50.974;11.330;2023-04-24T00:22:11;10.90;99.90
17815;DHT22;9031;50.974;11.330;2023-04-24T00:24:38;10.90;99.90
17815;DHT22;9031;50.974;11.330;2023-04-24T00:27:04;10.90;99.90
17815;DHT22;9031;50.974;11.330;2023-04-24T00:29:29;10.90;99.90
17815;DHT22;9031;50.974;11.330;2023-04-24T00:31:55;10.90;99.90
17815;DHT22;9031;50.974;11.330;2023-04-24T00:34:21;10.90;99.90
17815;DHT22;9031;50.974;11.330;2023-04-24T00:36:46;10.90;99.90
17815;DHT22;9031;50.974;11.330;2023-04-24T00:39:14;10.90;99.90
17815;DHT22;9031;50.974;11.330;2023-04-24T00:41:39;10.90;99.90
17815;DHT22;9031;50.974;11.330;2023-04-24T00:44:05;10.90;99.90
17815;DHT22;9031;50.974;11.330;2023-04-24T00:46:31;10.90;99.90
17815;DHT22;9031;50.974;11.330;2023-04-24T00:48:59;10.90;99.90
17815;DHT22;9031;50.974;11.330;2023-04-24T00:51:24;10.90;99.90
17815;DHT22;9031;50.974;11.330;2023-04-24T00:53:50;10.90;99.90
17815;DHT22;9031;50.974;11.330;2023-04-24T00:56:16;10.90;99.90
17815;DHT22;9031;50.974;11.330;2023-04-24T00:58:43;10.90;99.90
17815;DHT22;9031;50.974;11.330;2023-04-24T01:01:09;10.80;99.90
17815;DHT22;9031;50.974;11.330;2023-04-24T01:03:35;10.80;99.90
17815;DHT22;9031;50.974;11.330;2023-04-24T01:06:02;10.80;99.90
17815;DHT22;9031;50.974;11.330;2023-04-24T01:08:29;10.90;99.90
17815;DHT22;9031;50.974;11.330;2023-04-24T01:10:55;10.90;99.90
17815;DHT22;9031;50.974;11.330;2023-04-24T01:13:22;10.80;99.90
17815;DHT22;9031;50.974;11.330;2023-04-24T01:15:48;10.90;99.90
17815;DHT22;9031;50.974;11.330;2023-04-24T01:18:14;10.80;99.90
17815;DHT22;9031;50.974;11.330;2023-04-24T01:20:41;10.90;99.90
17815;DHT22;9031;50.974;11.330;2023-04-24T01:23:07;10.80;99.90
17815;DHT22;9031;50.974;11.330;2023-04-24T01:25:33;10.80;99.90
17815;DHT22;9031;50.974;11.330;2023-04-24T01:27:59;10.90;99.90
17815;DHT22;9031;50.974;11.330;2023-04-24T01:30:25;10.80;99.90
17815;DHT22;9031;50.974;11.330;2023-04-24T01:32:52;10.80;99.90
17815;DHT22;9031;50.974;11.330;2023-04-24T01:35:18;10.70;99.90
17815;DHT22;9031;50.974;11.330;2023-04-24T01:37:44;10.80;99.90
17815;DHT22;9031;50.974;11.330;2023-04-24T01:40:09;10.80;99.90
17815;DHT22;9031;50.974;11.330;2023-04-24T01:42:35;10.70;99.90
17815;DHT22;9031;50.974;11.330;2023-04-24T01:45:03;10.70;99.90
17815;DHT22;9031;50.974;11.330;2023-04-24T01:47:30;10.70;99.90
17815;DHT22;9031;50.974;11.330;2023-04-24T01:49:55;10.60;99.90
17815;DHT22;9031;50.974;11.330;2023-04-24T01:52:21;10.70;99.90
17815;DHT22;9031;50.974;11.330;2023-04-24T01:54:47;10.70;99.90
17815;DHT22;9031;50.974;11.330;2023-04-24T01:57:14;10.70;99.90
17815;DHT22;9031;50.974;11.330;2023-04-24T01:59:40;10.70;99.90
17815;DHT22;9031;50.974;11.330;2023-04-24T02:02:06;10.70;99.90
17815;DHT22;9031;50.974;11.330;2023-04-24T02:04:31;10.70;99.90
17815;DHT22;9031;50.974;11.330;2023-04-24T02:06:57;10.80;99.90
17815;DHT22;9031;50.974;11.330;2023-04-24T02:09:22;10.80;99.90
17815;DHT22;9031;50.974;11.330;2023-04-24T02:11:48;10.70;99.90
17815;DHT22;9031;50.974;11.330;2023-04-24T02:14:13;10.60;99.90
17815;DHT22;9031;50.974;11.330;2023-04-24T02:16:39;10.60;99.90
17815;DHT22;9031;50.974;11.330;2023-04-24T02:19:05;10.60;99.90
17815;DHT22;9031;50.974;11.330;2023-04-24T02:21:31;10.50;99.90
17815;DHT22;9031;50.974;11.330;2023-04-24T02:23:57;10.50;99.90
17815;DHT22;9031;50.974;11.330;2023-04-24T02:26:22;10.40;99.90
17815;DHT22;9031;50.974;11.330;2023-04-24T02:28:48;10.40;99.90
17815;DHT22;9031;50.974;11.330;2023-04-24T02:31:14;10.30;99.90
17815;DHT22;9031;50.974;11.330;2023-04-24T02:33:40;10.30;99.90
17815;DHT22;9031;50.974;11.330;2023-04-24T02:36:05;10.40;99.90
17815;DHT22;9031;50.974;11.330;2023-04-24T02:38:31;10.30;99.90
17815;DHT22;9031;50.974;11.330;2023-04-24T02:40:56;10.30;99.90
17815;DHT22;9031;50.974;11.330;2023-04-24T02:43:22;10.30;99.90
17815;DHT22;9031;50.974;11.330;2023-04-24T02:45:47;10.20;99.90
17815;DHT22;9031;50.974;11.330;2023-04-24T02:48:13;10.20;99.90
17815;DHT22;9031;50.974;11.330;2023-04-24T02:50:38;10.20;99.90
17815;DHT22;9031;50.974;11.330;2023-04-24T02:53:04;10.20;99.90
17815;DHT22;9031;50.974;11.330;2023-04-24T02:55:30;10.30;99.90
17815;DHT22;9031;50.974;11.330;2023-04-24T02:57:55;10.30;99.90
17815;DHT22;9031;50.974;11.330;2023-04-24T03:00:21;10.30;99.90
17815;DHT22;9031;50.974;11.330;2023-04-24T03:02:46;10.30;99.90
17815;DHT22;9031;50.974;11.330;2023-04-24T03:05:12;10.40;99.90
17815;DHT22;9031;50.974;11.330;2023-04-24T03:07:37;10.30;99.90
17815;DHT22;9031;50.974;11.330;2023-04-24T03:10:04;10.20;99.90
17815;DHT22;9031;50.974;11.330;2023-04-24T03:12:31;10.20;99.90
17815;DHT22;9031;50.974;11.330;2023-04-24T03:14:56;10.10;99.90
17815;DHT22;9031;50.974;11.330;2023-04-24T03:17:22;10.10;99.90
17815;DHT22;9031;50.974;11.330;2023-04-24T03:19:47;10.10;99.90
17815;DHT22;9031;50.974;11.330;2023-04-24T03:22:13;10.20;99.90
17815;DHT22;9031;50.974;11.330;2023-04-24T03:24:38;10.20;99.90
17815;DHT22;9031;50.974;11.330;2023-04-24T03:27:04;10.20;99.90
17815;DHT22;9031;50.974;11.330;2023-04-24T03:29:29;10.20;99.90
17815;DHT22;9031;50.974;11.330;2023-04-24T03:31:55;10.20;99.90
17815;DHT22;9031;50.974;11.330;2023-04-24T03:34:20;10.30;99.90
17815;DHT22;9031;50.974;11.330;2023-04-24T03:36:46;10.30;99.90
17815;DHT22;9031;50.974;11.330;2023-04-24T03:39:13;10.40;99.90
17815;DHT22;9031;50.974;11.330;2023-04-24T03:41:38;10.50;99.90
17815;DHT22;9031;50.974;11.330;2023-04-24T03:44:04;10.50;99.90
17815;DHT22;9031;50.974;11.330;2023-04-24T03:46:29;10.50;99.90
17815;DHT22;9031;50.974;11.330;2023-04-24T03:48:55;10.40;99.90
17815;DHT22;9031;50.974;11.330;2023-04-24T03:51:20;10.50;99.90
17815;DHT22;9031;50.974;11.330;2023-04-24T03:53:47;10.50;99.90
17815;DHT22;9031;50.974;11.330;2023-04-24T03:56:12;10.50;99.90
17815;DHT22;9031;50.974;11.330;2023-04-24T03:58:38;10.50;99.90
17815;DHT22;9031;50.974;11.330;2023-04-24T04:01:03;10.50;99.90
17815;DHT22;9031;50.974;11.330;2023-04-24T04:03:29;10.40;99.90
17815;DHT22;9031;50.974;11.330;2023-04-24T04:05:54;10.30;99.90
17815;DHT22;9031;50.974;11.330;2023-04-24T04:08:20;10.40;99.90
17815;DHT22;9031;50.974;11.330;2023-04-24T04:10:45;10.30;99.90
17815;DHT22;9031;50.974;11.330;2023-04-24T04:13:11;10.40;99.90
17815;DHT22;9031;50.974;11.330;2023-04-24T04:15:36;10.40;99.90
17815;DHT22;9031;50.974;11.330;2023-04-24T04:18:02;10.50;99.90
17815;DHT22;9031;50.974;11.330;2023-04-24T04:20:27;10.50;99.90
17815;DHT22;9031;50.974;11.330;2023-04-24T04:22:53;10.60;99.90
17815;DHT22;9031;50.974;11.330;2023-04-24T04:25:18;10.60;99.90
17815;DHT22;9031;50.974;11.330;2023-04-24T04:27:45;10.60;99.90
17815;DHT22;9031;50.974;11.330;2023-04-24T04:30:13;10.60;99.90
17815;DHT22;9031;50.974;11.330;2023-04-24T04:32:38;10.60;99.90
17815;DHT22;9031;50.974;11.330;2023-04-24T04:35:04;10.60;99.90
17815;DHT22;9031;50.974;11.330;2023-04-24T04:37:31;10.60;99.90
17815;DHT22;9031;50.974;11.330;2023-04-24T04:39:57;10.50;99.90
17815;DHT22;9031;50.974;11.330;2023-04-24T04:42:24;10.60;99.90
17815;DHT22;9031;50.974;11.330;2023-04-24T04:44:49;10.60;99.90
17815;DHT22;9031;50.974;11.330;2023-04-24T04:47:16;10.50;99.90
17815;DHT22;9031;50.974;11.330;2023-04-24T04:49:42;10.60;99.90
17815;DHT22;9031;50.974;11.330;2023-04-24T04:52:08;10.60;99.90
17815;DHT22;9031;50.974;11.330;2023-04-24T04:54:34;10.70;99.90
17815;DHT22;9031;50.974;11.330;2023-04-24T04:56:59;10.80;99.90
17815;DHT22;9031;50.974;11.330;2023-04-24T04:59:26;10.80;99.90
17815;DHT22;9031;50.974;11.330;2023-04-24T05:01:52;11.00;99.90
17815;DHT22;9031;50.974;11.330;2023-04-24T05:04:17;11.00;99.90
17815;DHT22;9031;50.974;11.330;2023-04-24T05:06:43;11.10;99.90
17815;DHT22;9031;50.974;11.330;2023-04-24T05:09:09;11.10;99.90
17815;DHT22;9031;50.974;11.330;2023-04-24T05:11:34;11.10;99.90
17815;DHT22;9031;50.974;11.330;2023-04-24T05:14:00;11.10;99.90
17815;DHT22;9031;50.974;11.330;2023-04-24T05:16:26;11.10;99.90
17815;DHT22;9031;50.974;11.330;2023-04-24T05:18:51;11.10;99.90
17815;DHT22;9031;50.974;11.330;2023-04-24T05:21:17;11.20;99.90
17815;DHT22;9031;50.974;11.330;2023-04-24T05:23:43;11.20;99.90
17815;DHT22;9031;50.974;11.330;2023-04-24T05:26:08;11.30;99.90
17815;DHT22;9031;50.974;11.330;2023-04-24T05:28:34;11.50;99.90
17815;DHT22;9031;50.974;11.330;2023-04-24T05:31:02;11.70;99.90
17815;DHT22;9031;50.974;11.330;2023-04-24T05:33:27;11.70;99.90
17815;DHT22;9031;50.974;11.330;2023-04-24T05:35:53;11.80;99.90
17815;DHT22;9031;50.974;11.330;2023-04-24T05:38:18;11.80;99.90
17815;DHT22;9031;50.974;11.330;2023-04-24T05:40:45;11.90;99.90
17815;DHT22;9031;50.974;11.330;2023-04-24T05:43:11;12.10;99.90
17815;DHT22;9031;50.974;11.330;2023-04-24T05:45:37;12.20;99.90
17815;DHT22;9031;50.974;11.330;2023-04-24T05:48:03;12.20;99.90
17815;DHT22;9031;50.974;11.330;2023-04-24T05:50:29;12.30;99.90
17815;DHT22;9031;50.974;11.330;2023-04-24T05:52:54;12.60;99.90
17815;DHT22;9031;50.974;11.330;2023-04-24T05:55:20;12.70;99.90
17815;DHT22;9031;50.974;11.330;2023-04-24T05:57:46;12.80;99.50
17815;DHT22;9031;50.974;11.330;2023-04-24T06:00:11;12.60;99.40
17815;DHT22;9031;50.974;11.330;2023-04-24T06:02:38;12.40;99.90
17815;DHT22;9031;50.974;11.330;2023-04-24T06:05:04;12.50;99.80
17815;DHT22;9031;50.974;11.330;2023-04-24T06:07:30;12.50;99.80
17815;DHT22;9031;50.974;11.330;2023-04-24T06:09:56;12.50;99.10
17815;DHT22;9031;50.974;11.330;2023-04-24T06:12:22;12.40;99.20
17815;DHT22;9031;50.974;11.330;2023-04-24T06:14:47;12.40;98.70
17815;DHT22;9031;50.974;11.330;2023-04-24T06:17:13;12.40;99.00
17815;DHT22;9031;50.974;11.330;2023-04-24T06:19:38;12.20;98.80
17815;DHT22;9031;50.974;11.330;2023-04-24T06:22:04;12.40;98.50
17815;DHT22;9031;50.974;11.330;2023-04-24T06:24:30;12.60;98.60
17815;DHT22;9031;50.974;11.330;2023-04-24T06:26:55;12.70;97.70
17815;DHT22;9031;50.974;11.330;2023-04-24T06:29:22;12.60;98.00
17815;DHT22;9031;50.974;11.330;2023-04-24T06:31:48;12.70;97.20
17815;DHT22;9031;50.974;11.330;2023-04-24T06:34:13;12.70;97.00
17815;DHT22;9031;50.974;11.330;2023-04-24T06:36:39;12.60;97.60
17815;DHT22;9031;50.974;11.330;2023-04-24T06:39:04;12.60;97.80
17815;DHT22;9031;50.974;11.330;2023-04-24T06:41:30;12.60;97.70
17815;DHT22;9031;50.974;11.330;2023-04-24T06:43:55;12.60;97.40
17815;DHT22;9031;50.974;11.330;2023-04-24T06:46:21;12.60;97.30
17815;DHT22;9031;50.974;11.330;2023-04-24T06:48:52;12.50;97.60
17815;DHT22;9031;50.974;11.330;2023-04-24T06:51:17;12.50;97.40
17815;DHT22;9031;50.974;11.330;2023-04-24T06:53:43;12.60;97.60
17815;DHT22;9031;50.974;11.330;2023-04-24T06:56:09;12.60;97.40
17815;DHT22;9031;50.974;11.330;2023-04-24T06:58:35;12.70;97.00
17815;DHT22;9031;50.974;11.330;2023-04-24T07:01:00;12.90;96.70
17815;DHT22;9031;50.974;11.330;2023-04-24T07:03:26;12.90;96.60
17815;DHT22;9031;50.974;11.330;2023-04-24T07:05:51;13.10;96.60
17815;DHT22;9031;50.974;11.330;2023-04-24T07:08:18;13.20;96.00
17815;DHT22;9031;50.974;11.330;2023-04-24T07:10:46;13.50;95.10
17815;DHT22;9031;50.974;11.330;2023-04-24T07:13:12;13.60;95.20
17815;DHT22;9031;50.974;11.330;2023-04-24T07:15:37;13.70;94.50
17815;DHT22;9031;50.974;11.330;2023-04-24T07:18:03;14.00;94.30
17815;DHT22;9031;50.974;11.330;2023-04-24T07:20:29;14.10;94.20
17815;DHT22;9031;50.974;11.330;2023-04-24T07:22:54;14.10;94.30
17815;DHT22;9031;50.974;11.330;2023-04-24T07:25:20;13.80;94.10
17815;DHT22;9031;50.974;11.330;2023-04-24T07:27:45;13.70;94.70
17815;DHT22;9031;50.974;11.330;2023-04-24T07:30:11;13.40;95.30
17815;DHT22;9031;50.974;11.330;2023-04-24T07:32:37;13.30;95.50
17815;DHT22;9031;50.974;11.330;2023-04-24T07:35:02;13.10;95.00
17815;DHT22;9031;50.974;11.330;2023-04-24T07:37:28;12.90;95.40
17815;DHT22;9031;50.974;11.330;2023-04-24T07:39:54;12.80;95.90
17815;DHT22;9031;50.974;11.330;2023-04-24T07:42:20;12.90;96.00
17815;DHT22;9031;50.974;11.330;2023-04-24T07:44:45;13.00;96.00
17815;DHT22;9031;50.974;11.330;2023-04-24T07:47:13;13.20;95.30
17815;DHT22;9031;50.974;11.330;2023-04-24T07:49:41;13.30;95.20
17815;DHT22;9031;50.974;11.330;2023-04-24T07:52:07;13.40;95.30
17815;DHT22;9031;50.974;11.330;2023-04-24T07:54:32;13.70;94.60
17815;DHT22;9031;50.974;11.330;2023-04-24T07:56:58;13.80;94.60
17815;DHT22;9031;50.974;11.330;2023-04-24T07:59:24;14.00;94.50
17815;DHT22;9031;50.974;11.330;2023-04-24T08:01:49;14.10;94.40
17815;DHT22;9031;50.974;11.330;2023-04-24T08:04:15;14.20;94.10
17815;DHT22;9031;50.974;11.330;2023-04-24T08:06:40;14.30;94.00
17815;DHT22;9031;50.974;11.330;2023-04-24T08:09:06;14.50;93.00
17815;DHT22;9031;50.974;11.330;2023-04-24T08:11:32;14.40;92.10
17815;DHT22;9031;50.974;11.330;2023-04-24T08:13:58;14.40;91.30
17815;DHT22;9031;50.974;11.330;2023-04-24T08:16:23;14.40;91.10
17815;DHT22;9031;50.974;11.330;2023-04-24T08:18:49;14.40;89.90
17815;DHT22;9031;50.974;11.330;2023-04-24T08:21:15;14.80;88.30
17815;DHT22;9031;50.974;11.330;2023-04-24T08:23:44;14.60;88.90
17815;DHT22;9031;50.974;11.330;2023-04-24T08:26:09;14.20;90.00
17815;DHT22;9031;50.974;11.330;2023-04-24T08:28:36;14.20;88.70
17815;DHT22;9031;50.974;11.330;2023-04-24T08:31:02;14.40;88.80
17815;DHT22;9031;50.974;11.330;2023-04-24T08:33:27;14.40;87.10
17815;DHT22;9031;50.974;11.330;2023-04-24T08:36:00;14.30;82.40
17815;DHT22;9031;50.974;11.330;2023-04-24T08:38:26;14.50;79.50
17815;DHT22;9031;50.974;11.330;2023-04-24T08:40:51;14.40;80.40
17815;DHT22;9031;50.974;11.330;2023-04-24T08:43:17;14.50;80.20
17815;DHT22;9031;50.974;11.330;2023-04-24T08:45:43;14.40;81.50
17815;DHT22;9031;50.974;11.330;2023-04-24T08:48:09;14.40;79.00
17815;DHT22;9031;50.974;11.330;2023-04-24T08:50:35;14.40;78.90
17815;DHT22;9031;50.974;11.330;2023-04-24T08:53:01;14.40;77.60
17815;DHT22;9031;50.974;11.330;2023-04-24T08:55:30;14.30;76.30
17815;DHT22;9031;50.974;11.330;2023-04-24T08:57:55;14.10;77.70
17815;DHT22;9031;50.974;11.330;2023-04-24T09:00:21;14.10;77.00
17815;DHT22;9031;50.974;11.330;2023-04-24T09:02:49;14.10;76.70
17815;DHT22;9031;50.974;11.330;2023-04-24T09:05:16;13.90;78.20
17815;DHT22;9031;50.974;11.330;2023-04-24T09:07:45;14.00;76.80
17815;DHT22;9031;50.974;11.330;2023-04-24T09:10:11;13.90;76.60
17815;DHT22;9031;50.974;11.330;2023-04-24T09:12:37;14.10;76.60
17815;DHT22;9031;50.974;11.330;2023-04-24T09:15:03;14.10;74.00
17815;DHT22;9031;50.974;11.330;2023-04-24T09:17:30;14.30;75.20
17815;DHT22;9031;50.974;11.330;2023-04-24T09:19:56;14.70;72.70
17815;DHT22;9031;50.974;11.330;2023-04-24T09:22:21;14.70;71.90
17815;DHT22;9031;50.974;11.330;2023-04-24T09:24:47;14.60;69.40
17815;DHT22;9031;50.974;11.330;2023-04-24T09:27:13;14.80;69.10
17815;DHT22;9031;50.974;11.330;2023-04-24T09:29:53;14.90;69.00
17815;DHT22;9031;50.974;11.330;2023-04-24T09:32:21;14.80;68.40
17815;DHT22;9031;50.974;11.330;2023-04-24T09:34:47;14.60;69.50
17815;DHT22;9031;50.974;11.330;2023-04-24T09:37:29;14.40;70.50
17815;DHT22;9031;50.974;11.330;2023-04-24T09:42:33;14.60;72.10
17815;DHT22;9031;50.974;11.330;2023-04-24T09:44:58;15.10;69.40
17815;DHT22;9031;50.974;11.330;2023-04-24T09:47:24;15.30;67.90
17815;DHT22;9031;50.974;11.330;2023-04-24T09:49:49;15.50;69.10
17815;DHT22;9031;50.974;11.330;2023-04-24T09:52:15;15.70;67.10
17815;DHT22;9031;50.974;11.330;2023-04-24T09:54:40;16.20;66.20
17815;DHT22;9031;50.974;11.330;2023-04-24T09:57:09;16.50;61.60
17815;DHT22;9031;50.974;11.330;2023-04-24T09:59:35;16.40;60.10
17815;DHT22;9031;50.974;11.330;2023-04-24T10:02:17;16.40;59.60
17815;DHT22;9031;50.974;11.330;2023-04-24T10:04:54;16.60;60.60
17815;DHT22;9031;50.974;11.330;2023-04-24T10:07:21;16.60;62.70
17815;DHT22;9031;50.974;11.330;2023-04-24T10:09:46;15.70;65.10
17815;DHT22;9031;50.974;11.330;2023-04-24T10:12:13;15.30;65.90
17815;DHT22;9031;50.974;11.330;2023-04-24T10:14:38;14.70;67.90
17815;DHT22;9031;50.974;11.330;2023-04-24T10:17:05;14.70;67.40
17815;DHT22;9031;50.974;11.330;2023-04-24T10:19:32;15.10;65.40
17815;DHT22;9031;50.974;11.330;2023-04-24T10:21:58;15.40;63.60
17815;DHT22;9031;50.974;11.330;2023-04-24T10:24:24;15.20;64.50
17815;DHT22;9031;50.974;11.330;2023-04-24T10:26:50;15.20;63.70
17815;DHT22;9031;50.974;11.330;2023-04-24T10:29:18;16.10;61.50
17815;DHT22;9031;50.974;11.330;2023-04-24T10:31:44;18.90;54.10
17815;DHT22;9031;50.974;11.330;2023-04-24T10:34:15;18.60;53.40
17815;DHT22;9031;50.974;11.330;2023-04-24T10:36:54;17.60;58.70
17815;DHT22;9031;50.974;11.330;2023-04-24T10:39:21;18.50;53.10
17815;DHT22;9031;50.974;11.330;2023-04-24T10:41:49;17.30;57.00
17815;DHT22;9031;50.974;11.330;2023-04-24T10:44:15;18.20;54.00
17815;DHT22;9031;50.974;11.330;2023-04-24T10:46:46;17.20;54.40
17815;DHT22;9031;50.974;11.330;2023-04-24T10:49:13;16.60;56.90
17815;DHT22;9031;50.974;11.330;2023-04-24T10:56:51;14.70;63.10
17815;DHT22;9031;50.974;11.330;2023-04-24T10:59:27;16.00;60.30
17815;DHT22;9031;50.974;11.330;2023-04-24T11:01:54;15.40;61.00
17815;DHT22;9031;50.974;11.330;2023-04-24T11:04:30;15.00;62.20
17815;DHT22;9031;50.974;11.330;2023-04-24T11:06:57;15.00;61.70
17815;DHT22;9031;50.974;11.330;2023-04-24T11:09:35;14.90;62.30
17815;DHT22;9031;50.974;11.330;2023-04-24T11:12:06;17.80;57.30
17815;DHT22;9031;50.974;11.330;2023-04-24T11:17:35;24.90;41.40
17815;DHT22;9031;50.974;11.330;2023-04-24T11:20:10;22.50;42.90
17815;DHT22;9031;50.974;11.330;2023-04-24T11:22:38;19.40;49.00
17815;DHT22;9031;50.974;11.330;2023-04-24T11:25:06;17.80;51.60
17815;DHT22;9031;50.974;11.330;2023-04-24T11:27:39;16.40;55.50
17815;DHT22;9031;50.974;11.330;2023-04-24T11:30:05;15.90;57.50
17815;DHT22;9031;50.974;11.330;2023-04-24T11:32:42;16.50;57.30
17815;DHT22;9031;50.974;11.330;2023-04-24T11:35:22;17.70;54.10
17815;DHT22;9031;50.974;11.330;2023-04-24T11:37:54;20.00;48.90
17815;DHT22;9031;50.974;11.330;2023-04-24T11:40:21;22.00;43.30
17815;DHT22;9031;50.974;11.330;2023-04-24T11:42:52;23.80;40.40
17815;DHT22;9031;50.974;11.330;2023-04-24T11:45:26;22.20;41.90
17815;DHT22;9031;50.974;11.330;2023-04-24T11:47:52;20.80;45.80
17815;DHT22;9031;50.974;11.330;2023-04-24T11:50:21;22.00;44.40
17815;DHT22;9031;50.974;11.330;2023-04-24T11:52:48;21.60;44.30
17815;DHT22;9031;50.974;11.330;2023-04-24T11:57:43;18.60;49.80
17815;DHT22;9031;50.974;11.330;2023-04-24T12:00:36;17.60;52.40
17815;DHT22;9031;50.974;11.330;2023-04-24T12:03:11;16.90;55.70
17815;DHT22;9031;50.974;11.330;2023-04-24T12:05:37;19.10;50.70
17815;DHT22;9031;50.974;11.330;2023-04-24T12:08:03;19.40;48.20
17815;DHT22;9031;50.974;11.330;2023-04-24T12:10:31;18.10;51.10
17815;DHT22;9031;50.974;11.330;2023-04-24T12:12:58;18.80;50.20
17815;DHT22;9031;50.974;11.330;2023-04-24T12:15:24;22.30;44.00
17815;DHT22;9031;50.974;11.330;2023-04-24T12:17:51;24.30;39.40
17815;DHT22;9031;50.974;11.330;2023-04-24T12:20:17;24.70;38.70
17815;DHT22;9031;50.974;11.330;2023-04-24T12:22:44;24.20;38.00
17815;DHT22;9031;50.974;11.330;2023-04-24T12:25:11;23.70;38.60
17815;DHT22;9031;50.974;11.330;2023-04-24T12:27:36;23.30;40.00
17815;DHT22;9031;50.974;11.330;2023-04-24T12:30:04;23.90;39.70
17815;DHT22;9031;50.974;11.330;2023-04-24T12:32:30;20.90;44.60
17815;DHT22;9031;50.974;11.330;2023-04-24T12:34:57;18.80;50.90
17815;DHT22;9031;50.974;11.330;2023-04-24T12:37:26;18.10;53.10
17815;DHT22;9031;50.974;11.330;2023-04-24T12:40:03;20.70;48.40
17815;DHT22;9031;50.974;11.330;2023-04-24T12:42:31;23.10;41.30
17815;DHT22;9031;50.974;11.330;2023-04-24T12:45:04;23.10;40.40
17815;DHT22;9031;50.974;11.330;2023-04-24T12:47:32;22.30;42.90
17815;DHT22;9031;50.974;11.330;2023-04-24T12:49:58;22.30;42.50
17815;DHT22;9031;50.974;11.330;2023-04-24T12:52:24;21.30;43.30
17815;DHT22;9031;50.974;11.330;2023-04-24T12:54:52;18.40;50.90
17815;DHT22;9031;50.974;11.330;2023-04-24T12:57:18;17.40;54.60
17815;DHT22;9031;50.974;11.330;2023-04-24T12:59:44;17.00;56.20
17815;DHT22;9031;50.974;11.330;2023-04-24T13:02:10;16.30;57.60
17815;DHT22;9031;50.974;11.330;2023-04-24T13:04:36;15.80;58.80
17815;DHT22;9031;50.974;11.330;2023-04-24T13:07:01;15.70;60.00
17815;DHT22;9031;50.974;11.330;2023-04-24T13:09:27;15.40;61.50
17815;DHT22;9031;50.974;11.330;2023-04-24T13:11:53;15.00;63.50
17815;DHT22;9031;50.974;11.330;2023-04-24T13:14:19;14.70;65.90
17815;DHT22;9031;50.974;11.330;2023-04-24T13:16:44;14.50;67.50
17815;DHT22;9031;50.974;11.330;2023-04-24T13:19:10;14.40;70.10
17815;DHT22;9031;50.974;11.330;2023-04-24T13:21:35;14.30;72.00
17815;DHT22;9031;50.974;11.330;2023-04-24T13:24:01;14.10;75.30
17815;DHT22;9031;50.974;11.330;2023-04-24T13:26:27;14.40;76.00
17815;DHT22;9031;50.974;11.330;2023-04-24T13:28:52;16.20;70.80
17815;DHT22;9031;50.974;11.330;2023-04-24T13:31:18;19.30;58.90
17815;DHT22;9031;50.974;11.330;2023-04-24T13:33:43;20.70;53.60
17815;DHT22;9031;50.974;11.330;2023-04-24T13:36:09;22.00;50.10
17815;DHT22;9031;50.974;11.330;2023-04-24T13:38:34;20.80;50.50
17815;DHT22;9031;50.974;11.330;2023-04-24T13:41:00;20.60;50.50
17815;DHT22;9031;50.974;11.330;2023-04-24T13:43:26;21.20;49.80
17815;DHT22;9031;50.974;11.330;2023-04-24T13:45:52;22.40;46.80
17815;DHT22;9031;50.974;11.330;2023-04-24T13:48:17;21.60;48.10
17815;DHT22;9031;50.974;11.330;2023-04-24T13:50:43;19.20;53.00
17815;DHT22;9031;50.974;11.330;2023-04-24T13:53:09;18.10;58.00
17815;DHT22;9031;50.974;11.330;2023-04-24T13:55:35;17.10;60.10
17815;DHT22;9031;50.974;11.330;2023-04-24T13:58:01;18.80;57.20
17815;DHT22;9031;50.974;11.330;2023-04-24T14:00:27;20.00;54.60
17815;DHT22;9031;50.974;11.330;2023-04-24T14:02:53;21.00;50.70
17815;DHT22;9031;50.974;11.330;2023-04-24T14:05:18;19.50;54.10
17815;DHT22;9031;50.974;11.330;2023-04-24T14:07:46;19.10;55.80
17815;DHT22;9031;50.974;11.330;2023-04-24T14:10:11;17.80;58.90
17815;DHT22;9031;50.974;11.330;2023-04-24T14:12:37;15.90;64.30
17815;DHT22;9031;50.974;11.330;2023-04-24T14:15:03;14.90;70.20
17815;DHT22;9031;50.974;11.330;2023-04-24T14:17:30;14.50;72.30
17815;DHT22;9031;50.974;11.330;2023-04-24T14:19:56;14.00;74.60
17815;DHT22;9031;50.974;11.330;2023-04-24T14:22:22;13.70;84.70
17815;DHT22;9031;50.974;11.330;2023-04-24T14:24:47;13.60;89.30
17815;DHT22;9031;50.974;11.330;2023-04-24T14:27:13;14.90;84.30
17815;DHT22;9031;50.974;11.330;2023-04-24T14:29:38;14.50;83.70
17815;DHT22;9031;50.974;11.330;2023-04-24T14:32:04;14.20;85.10
17815;DHT22;9031;50.974;11.330;2023-04-24T14:34:30;14.00;83.90
17815;DHT22;9031;50.974;11.330;2023-04-24T14:36:55;13.70;84.00
17815;DHT22;9031;50.974;11.330;2023-04-24T14:39:21;13.80;85.00
17815;DHT22;9031;50.974;11.330;2023-04-24T14:41:46;15.20;81.10
17815;DHT22;9031;50.974;11.330;2023-04-24T14:44:12;17.10;73.70
17815;DHT22;9031;50.974;11.330;2023-04-24T14:46:37;18.60;66.60
17815;DHT22;9031;50.974;11.330;2023-04-24T14:49:03;19.80;59.10
17815;DHT22;9031;50.974;11.330;2023-04-24T14:51:28;19.90;57.30
17815;DHT22;9031;50.974;11.330;2023-04-24T14:53:54;18.30;60.00
17815;DHT22;9031;50.974;11.330;2023-04-24T14:56:19;16.90;64.70
17815;DHT22;9031;50.974;11.330;2023-04-24T14:58:45;17.50;63.20
17815;DHT22;9031;50.974;11.330;2023-04-24T15:01:11;16.40;65.60
17815;DHT22;9031;50.974;11.330;2023-04-24T15:03:36;15.40;69.40
17815;DHT22;9031;50.974;11.330;2023-04-24T15:06:02;16.00;70.90
17815;DHT22;9031;50.974;11.330;2023-04-24T15:08:27;17.80;64.50
17815;DHT22;9031;50.974;11.330;2023-04-24T15:10:53;17.90;64.50
17815;DHT22;9031;50.974;11.330;2023-04-24T15:13:19;17.20;65.60
17815;DHT22;9031;50.974;11.330;2023-04-24T15:15:46;17.50;65.00
17815;DHT22;9031;50.974;11.330;2023-04-24T15:18:12;16.00;70.80
17815;DHT22;9031;50.974;11.330;2023-04-24T15:20:38;14.50;76.90
17815;DHT22;9031;50.974;11.330;2023-04-24T15:23:08;14.20;79.60
17815;DHT22;9031;50.974;11.330;2023-04-24T15:25:34;14.00;80.80
17815;DHT22;9031;50.974;11.330;2023-04-24T15:28:00;14.60;78.60
17815;DHT22;9031;50.974;11.330;2023-04-24T15:30:26;16.30;72.00
17815;DHT22;9031;50.974;11.330;2023-04-24T15:32:51;17.80;66.20
17815;DHT22;9031;50.974;11.330;2023-04-24T15:35:17;18.10;62.70
17815;DHT22;9031;50.974;11.330;2023-04-24T15:37:43;16.30;67.50